Time;durP1;ratioP1;P1;durP2;ratioP2;P2;SDS_P1;SDS_P2;PMS_P1;PMS_P2;Temp;Humidity;BMP_temperature;BMP_pressure;BME280_temperature;BME280_humidity;BME280_pressure;Samples;Min_cycle;Max_cycle;Signal;HPM_P1;HPM_P2
2022/10/12 00:00:09;;;;;;;16.52;6.88;;;;;;;;;;6134866;23;20293;-90
2022/10/12 00:03:21;;;;;;;16.40;6.63;;;;;;;;;;6137247;23;20205;-92
2022/10/12 00:06:28;;;;;;;15.00;6.88;;;;;;;;;;6137805;23;20170;-91
2022/10/12 00:09:33;;;;;;;13.77;7.13;;;;;;;;;;6134888;23;20161;-90
2022/10/12 00:12:38;;;;;;;13.45;6.90;;;;;;;;;;6136746;23;20200;-90
2022/10/12 00:15:43;;;;;;;20.27;7.25;;;;;;;;;;6136072;23;20165;-91
2022/10/12 00:18:51;;;;;;;24.00;6.55;;;;;;;;;;6137453;23;20172;-91
2022/10/12 00:21:57;;;;;;;19.65;7.65;;;;;;;;;;6137763;23;20196;-90
2022/10/12 00:25:04;;;;;;;17.20;6.78;;;;;;;;;;6141294;23;20164;-90
2022/10/12 00:28:09;;;;;;;22.00;6.68;;;;;;;;;;6143598;23;20186;-91
2022/10/12 00:31:15;;;;;;;19.05;6.68;;;;;;;;;;6139020;23;20173;-90
2022/10/12 00:34:20;;;;;;;15.13;6.30;;;;;;;;;;6138165;23;20165;-90
2022/10/12 00:37:26;;;;;;;15.00;6.80;;;;;;;;;;6139914;23;20165;-91
2022/10/12 00:40:31;;;;;;;19.40;6.30;;;;;;;;;;6146828;23;20765;-92
2022/10/12 00:43:40;;;;;;;27.00;6.90;;;;;;;;;;6140258;23;20197;-90
2022/10/12 00:46:46;;;;;;;15.38;6.75;;;;;;;;;;6139491;23;20270;-90
2022/10/12 00:49:53;;;;;;;25.58;7.18;;;;;;;;;;6135522;23;20164;-91
2022/10/12 00:53:06;;;;;;;13.00;6.63;;;;;;;;;;6138021;23;20173;-90
2022/10/12 00:56:13;;;;;;;18.67;6.90;;;;;;;;;;6139220;23;20249;-90
2022/10/12 00:59:20;;;;;;;19.73;7.45;;;;;;;;;;6138702;23;20168;-89
2022/10/12 01:02:27;;;;;;;20.77;7.05;;;;;;;;;;6144211;23;20244;-90
2022/10/12 01:05:33;;;;;;;15.05;6.80;;;;;;;;;;6146946;23;20174;-91
2022/10/12 01:08:54;;;;;;;18.05;7.20;;;;;;;;;;6143043;23;20171;-91
2022/10/12 01:12:00;;;;;;;32.08;7.28;;;;;;;;;;6137656;23;20173;-91
2022/10/12 01:15:06;;;;;;;24.60;7.90;;;;;;;;;;6141222;23;20172;-91
2022/10/12 01:18:16;;;;;;;18.75;7.20;;;;;;;;;;6139171;23;20270;-91
2022/10/12 01:21:22;;;;;;;17.67;6.80;;;;;;;;;;6138123;23;20165;-90
2022/10/12 01:28:05;;;;;;;26.95;8.25;;;;;;;;;;6137008;23;20164;-89
2022/10/12 01:31:14;;;;;;;24.42;8.13;;;;;;;;;;6138333;23;20181;-88
2022/10/12 01:34:22;;;;;;;19.23;6.95;;;;;;;;;;6137800;23;20172;-88
2022/10/12 01:37:31;;;;;;;17.85;7.30;;;;;;;;;;6138605;23;20182;-90
2022/10/12 01:40:38;;;;;;;17.83;6.75;;;;;;;;;;6137116;23;20173;-88
2022/10/12 01:43:44;;;;;;;25.75;6.60;;;;;;;;;;6136962;23;20313;-88
2022/10/12 01:46:51;;;;;;;22.65;6.68;;;;;;;;;;6137464;23;20217;-90
2022/10/12 01:49:57;;;;;;;14.25;7.22;;;;;;;;;;6134174;23;20168;-89
2022/10/12 01:53:07;;;;;;;17.10;6.55;;;;;;;;;;6136033;23;20217;-90
2022/10/12 01:56:19;;;;;;;17.13;6.68;;;;;;;;;;6136619;23;20177;-90
2022/10/12 01:59:31;;;;;;;13.93;6.20;;;;;;;;;;6137716;23;20168;-89
2022/10/12 02:02:45;;;;;;;19.63;7.75;;;;;;;;;;6136240;23;20212;-89
2022/10/12 02:05:52;;;;;;;19.02;7.32;;;;;;;;;;6135764;23;20502;-89
2022/10/12 02:09:00;;;;;;;22.13;7.32;;;;;;;;;;6136079;23;20169;-89
2022/10/12 02:12:07;;;;;;;16.60;7.18;;;;;;;;;;6135157;23;20612;-89
2022/10/12 02:15:13;;;;;;;16.65;7.05;;;;;;;;;;6135676;23;20233;-89
2022/10/12 02:18:20;;;;;;;24.40;7.72;;;;;;;;;;6136800;23;20185;-89
2022/10/12 02:21:27;;;;;;;16.00;6.53;;;;;;;;;;6134582;23;20289;-89
2022/10/12 02:24:41;;;;;;;19.45;7.45;;;;;;;;;;6136502;23;20181;-90
2022/10/12 02:27:48;;;;;;;17.60;7.00;;;;;;;;;;6139693;23;20178;-90
2022/10/12 02:30:58;;;;;;;13.60;7.20;;;;;;;;;;6138739;23;20149;-90
2022/10/12 02:34:07;;;;;;;22.67;7.18;;;;;;;;;;6137028;23;20173;-90
2022/10/12 02:37:18;;;;;;;15.27;7.30;;;;;;;;;;6136509;23;20174;-90
2022/10/12 02:40:27;;;;;;;17.75;7.20;;;;;;;;;;6135770;23;20548;-90
2022/10/12 02:43:35;;;;;;;19.08;6.88;;;;;;;;;;6135728;23;20205;-90
2022/10/12 02:46:42;;;;;;;16.10;6.57;;;;;;;;;;6136551;23;20165;-89
2022/10/12 02:49:49;;;;;;;17.27;6.55;;;;;;;;;;6136807;23;20177;-90
2022/10/12 02:52:55;;;;;;;24.48;6.65;;;;;;;;;;6137246;23;20173;-89
2022/10/12 02:56:01;;;;;;;13.75;6.60;;;;;;;;;;6141701;23;20272;-90
2022/10/12 02:59:07;;;;;;;18.80;7.10;;;;;;;;;;6177236;23;20204;-90
2022/10/12 03:02:11;;;;;;;26.83;6.63;;;;;;;;;;6178022;23;20200;-90
2022/10/12 03:05:18;;;;;;;20.50;7.57;;;;;;;;;;6178105;23;20168;-91
2022/10/12 03:08:23;;;;;;;18.15;7.07;;;;;;;;;;6176127;23;20164;-90
2022/10/12 03:11:28;;;;;;;16.05;7.38;;;;;;;;;;6176654;23;20163;-92
2022/10/12 03:14:36;;;;;;;18.95;7.05;;;;;;;;;;6177127;23;20179;-92
2022/10/12 03:17:41;;;;;;;19.02;7.13;;;;;;;;;;6179389;23;20176;-89
2022/10/12 03:20:49;;;;;;;20.20;7.63;;;;;;;;;;6177851;23;20172;-90
2022/10/12 03:23:54;;;;;;;15.32;6.78;;;;;;;;;;6175314;23;20194;-90
2022/10/12 03:27:00;;;;;;;13.93;7.38;;;;;;;;;;6176619;23;20195;-90
2022/10/12 03:30:05;;;;;;;24.38;7.10;;;;;;;;;;6178540;23;20167;-90
2022/10/12 03:33:11;;;;;;;18.42;7.93;;;;;;;;;;6178268;23;20250;-91
2022/10/12 03:36:17;;;;;;;21.73;6.97;;;;;;;;;;6177836;23;20164;-89
2022/10/12 03:39:22;;;;;;;16.55;7.03;;;;;;;;;;6180529;23;20225;-90
2022/10/12 03:42:28;;;;;;;17.20;7.95;;;;;;;;;;6178705;23;20195;-90
2022/10/12 03:45:33;;;;;;;16.88;6.82;;;;;;;;;;6179925;23;20168;-90
2022/10/12 03:48:38;;;;;;;17.45;7.38;;;;;;;;;;6178808;23;20171;-90
2022/10/12 03:51:45;;;;;;;14.43;7.60;;;;;;;;;;6184660;23;20712;-89
2022/10/12 03:54:50;;;;;;;10.68;6.57;;;;;;;;;;6178762;23;20218;-89
2022/10/12 03:57:55;;;;;;;20.10;7.00;;;;;;;;;;6178394;23;20172;-89
2022/10/12 04:01:05;;;;;;;19.00;7.50;;;;;;;;;;6179742;23;20208;-89
2022/10/12 04:04:10;;;;;;;17.48;7.00;;;;;;;;;;6175965;23;20322;-89
2022/10/12 04:07:17;;;;;;;25.10;7.25;;;;;;;;;;6181094;23;20160;-89
2022/10/12 04:10:22;;;;;;;23.00;7.57;;;;;;;;;;6178108;23;20291;-89
2022/10/12 04:13:26;;;;;;;17.45;7.68;;;;;;;;;;6178388;23;20151;-89
2022/10/12 04:16:31;;;;;;;22.10;7.55;;;;;;;;;;6177856;23;20167;-90
2022/10/12 04:19:40;;;;;;;24.83;8.43;;;;;;;;;;6179774;23;20192;-90
2022/10/12 04:22:47;;;;;;;17.13;7.90;;;;;;;;;;6179904;23;20253;-88
2022/10/12 04:26:04;;;;;;;20.63;8.10;;;;;;;;;;6182070;23;20167;-90
2022/10/12 04:29:09;;;;;;;15.43;8.00;;;;;;;;;;6182840;23;20513;-90
2022/10/12 04:32:15;;;;;;;18.60;7.90;;;;;;;;;;6188343;23;20167;-90
2022/10/12 04:35:19;;;;;;;23.33;7.75;;;;;;;;;;6178468;23;20507;-91
2022/10/12 04:38:29;;;;;;;26.13;9.05;;;;;;;;;;6180087;23;20180;-90
2022/10/12 04:41:34;;;;;;;22.60;8.63;;;;;;;;;;6182151;23;20207;-91
2022/10/12 04:44:40;;;;;;;22.17;7.97;;;;;;;;;;6177974;23;20200;-90
2022/10/12 04:47:45;;;;;;;19.00;9.02;;;;;;;;;;6181700;23;20164;-90
2022/10/12 04:50:50;;;;;;;22.08;9.50;;;;;;;;;;6180924;23;20167;-91
2022/10/12 04:53:56;;;;;;;25.15;8.57;;;;;;;;;;6181519;23;20184;-90
2022/10/12 04:57:02;;;;;;;18.33;8.68;;;;;;;;;;6181110;23;20647;-90
2022/10/12 05:00:07;;;;;;;24.73;9.63;;;;;;;;;;6183222;23;20168;-92
2022/10/12 05:03:12;;;;;;;18.67;8.93;;;;;;;;;;6181491;23;20192;-91
2022/10/12 05:06:17;;;;;;;19.80;9.25;;;;;;;;;;6178730;23;20160;-91
2022/10/12 05:09:24;;;;;;;19.42;8.77;;;;;;;;;;6179200;23;20208;-90
2022/10/12 05:12:29;;;;;;;19.58;8.82;;;;;;;;;;6180141;23;20171;-91
2022/10/12 05:15:34;;;;;;;20.80;8.25;;;;;;;;;;6179397;23;20166;-92
2022/10/12 05:18:40;;;;;;;23.42;10.18;;;;;;;;;;6183711;23;20524;-91
2022/10/12 05:21:49;;;;;;;38.35;10.00;;;;;;;;;;6182961;23;20188;-90
2022/10/12 05:25:20;;;;;;;22.95;9.18;;;;;;;;;;6182058;23;20207;-90
2022/10/12 05:28:27;;;;;;;27.27;9.43;;;;;;;;;;6186240;23;20167;-91
2022/10/12 05:31:32;;;;;;;22.85;9.48;;;;;;;;;;6183465;23;20171;-90
2022/10/12 05:34:38;;;;;;;22.67;10.00;;;;;;;;;;6182538;23;20171;-90
2022/10/12 05:37:44;;;;;;;27.77;9.50;;;;;;;;;;6185682;23;20159;-91
2022/10/12 05:40:51;;;;;;;23.27;8.40;;;;;;;;;;6185861;23;20172;-89
2022/10/12 15:04:12;;;;;;;17.05;9.23;;;;;;;;;;6115453;23;20769;31
2022/10/12 15:07:18;;;;;;;20.00;9.35;;;;;;;;;;6122719;23;20160;-89
2022/10/12 15:10:24;;;;;;;17.73;8.73;;;;;;;;;;6123022;23;20165;-90
2022/10/12 15:13:29;;;;;;;21.17;9.68;;;;;;;;;;6122272;23;20173;-89
2022/10/12 15:16:34;;;;;;;15.82;8.80;;;;;;;;;;6123077;23;20178;-89
2022/10/12 15:19:42;;;;;;;20.60;9.20;;;;;;;;;;6124321;23;20169;-88
2022/10/12 15:22:47;;;;;;;23.23;9.02;;;;;;;;;;6122397;23;20170;-90
2022/10/12 15:26:22;;;;;;;16.10;9.00;;;;;;;;;;6124354;23;20176;-89
2022/10/12 15:29:28;;;;;;;16.42;9.13;;;;;;;;;;6124285;23;20154;-90
2022/10/12 15:32:34;;;;;;;16.25;9.27;;;;;;;;;;6125310;23;20173;-88
2022/10/12 15:35:45;;;;;;;20.63;9.18;;;;;;;;;;6123784;23;20169;-90
2022/10/12 15:38:53;;;;;;;18.83;10.27;;;;;;;;;;6123984;23;20494;-89
2022/10/12 15:41:58;;;;;;;21.25;9.63;;;;;;;;;;6124779;23;20901;-90
2022/10/12 15:45:06;;;;;;;20.00;9.82;;;;;;;;;;6123043;23;20262;-91
2022/10/12 15:48:12;;;;;;;19.85;10.23;;;;;;;;;;6122214;23;20218;-90
2022/10/12 15:51:21;;;;;;;24.20;10.38;;;;;;;;;;6120974;23;20173;-90
2022/10/12 15:54:26;;;;;;;22.77;10.40;;;;;;;;;;6123274;23;20156;-90
2022/10/12 15:57:31;;;;;;;17.75;9.65;;;;;;;;;;6124521;23;20165;-90
2022/10/12 16:00:40;;;;;;;25.27;10.77;;;;;;;;;;6125064;23;20182;-90
2022/10/12 16:03:46;;;;;;;18.77;9.57;;;;;;;;;;6125757;23;20221;-91
2022/10/12 16:06:53;;;;;;;23.05;10.30;;;;;;;;;;6093428;23;20193;-89
2022/10/12 16:09:59;;;;;;;22.15;10.20;;;;;;;;;;6096029;23;20165;-90
2022/10/12 16:13:05;;;;;;;22.05;10.02;;;;;;;;;;6094416;23;20169;-92
2022/10/12 16:16:11;;;;;;;23.42;10.48;;;;;;;;;;6096064;23;20170;-90
2022/10/12 16:19:16;;;;;;;20.38;9.90;;;;;;;;;;6093484;23;20181;-90
2022/10/12 16:22:22;;;;;;;18.88;10.30;;;;;;;;;;6093785;23;20166;-89
2022/10/12 16:25:28;;;;;;;28.27;10.82;;;;;;;;;;6094317;23;20325;-90
2022/10/12 16:28:33;;;;;;;21.73;10.00;;;;;;;;;;6095438;23;20174;-91
2022/10/12 16:31:38;;;;;;;25.58;10.43;;;;;;;;;;6095562;23;20253;-89
2022/10/12 16:34:43;;;;;;;30.65;11.90;;;;;;;;;;6095493;23;20207;-88
2022/10/12 16:37:50;;;;;;;27.83;11.30;;;;;;;;;;6094913;23;20177;-91
2022/10/12 16:40:56;;;;;;;27.00;11.57;;;;;;;;;;6092474;23;20249;-89
2022/10/12 16:44:03;;;;;;;24.05;12.05;;;;;;;;;;6096088;23;20229;-90
2022/10/12 16:47:08;;;;;;;21.27;11.23;;;;;;;;;;6093527;23;20174;-89
2022/10/12 16:50:13;;;;;;;26.50;11.80;;;;;;;;;;6094565;23;20210;-89
2022/10/12 16:53:20;;;;;;;22.88;11.07;;;;;;;;;;6094755;23;20177;-89
2022/10/12 16:56:26;;;;;;;24.27;11.00;;;;;;;;;;6111176;23;20174;-88
2022/10/12 16:59:43;;;;;;;29.85;13.05;;;;;;;;;;6095573;23;20174;-89
2022/10/12 17:02:48;;;;;;;31.38;13.77;;;;;;;;;;6093317;23;20173;-90
